sensor_id;sensor_type;location;lat;lon;timestamp;temperature;humidity
45343;DHT22;31077;50.872;4.352;2023-02-20T00:02:03;24.60;37.10
45343;DHT22;31077;50.872;4.352;2023-02-20T00:04:29;24.60;37.20
45343;DHT22;31077;50.872;4.352;2023-02-20T00:06:54;24.60;37.20
45343;DHT22;31077;50.872;4.352;2023-02-20T00:09:20;24.60;37.10
45343;DHT22;31077;50.872;4.352;2023-02-20T00:11:46;24.60;37.00
45343;DHT22;31077;50.872;4.352;2023-02-20T00:14:12;24.70;37.20
45343;DHT22;31077;50.872;4.352;2023-02-20T00:16:38;24.60;37.40
45343;DHT22;31077;50.872;4.352;2023-02-20T00:19:03;24.70;37.50
45343;DHT22;31077;50.872;4.352;2023-02-20T00:21:30;24.60;37.40
45343;DHT22;31077;50.872;4.352;2023-02-20T00:23:55;24.70;37.40
45343;DHT22;31077;50.872;4.352;2023-02-20T00:26:21;24.70;37.40
45343;DHT22;31077;50.872;4.352;2023-02-20T00:28:47;24.70;37.30
45343;DHT22;31077;50.872;4.352;2023-02-20T00:31:14;24.60;37.30
45343;DHT22;31077;50.872;4.352;2023-02-20T00:33:41;24.70;37.30
45343;DHT22;31077;50.872;4.352;2023-02-20T00:36:07;24.70;37.30
45343;DHT22;31077;50.872;4.352;2023-02-20T00:38:33;24.70;37.40
45343;DHT22;31077;50.872;4.352;2023-02-20T00:40:59;24.60;37.20
45343;DHT22;31077;50.872;4.352;2023-02-20T00:43:24;26.50;38.50
45343;DHT22;31077;50.872;4.352;2023-02-20T00:45:50;24.60;37.10
45343;DHT22;31077;50.872;4.352;2023-02-20T00:48:16;24.60;37.20
45343;DHT22;31077;50.872;4.352;2023-02-20T00:50:41;24.70;37.10
45343;DHT22;31077;50.872;4.352;2023-02-20T00:53:07;24.70;37.30
45343;DHT22;31077;50.872;4.352;2023-02-20T00:55:33;23.80;36.70
45343;DHT22;31077;50.872;4.352;2023-02-20T00:57:59;24.70;37.20
45343;DHT22;31077;50.872;4.352;2023-02-20T01:00:27;24.60;37.10
45343;DHT22;31077;50.872;4.352;2023-02-20T01:02:53;24.70;37.20
45343;DHT22;31077;50.872;4.352;2023-02-20T01:05:20;24.70;37.10
45343;DHT22;31077;50.872;4.352;2023-02-20T01:07:46;24.70;37.20
45343;DHT22;31077;50.872;4.352;2023-02-20T01:10:13;24.60;37.10
45343;DHT22;31077;50.872;4.352;2023-02-20T01:12:39;24.50;37.10
45343;DHT22;31077;50.872;4.352;2023-02-20T01:15:07;24.60;37.10
45343;DHT22;31077;50.872;4.352;2023-02-20T01:17:33;24.60;37.10
45343;DHT22;31077;50.872;4.352;2023-02-20T01:19:59;24.60;37.10
45343;DHT22;31077;50.872;4.352;2023-02-20T01:22:24;24.70;37.10
45343;DHT22;31077;50.872;4.352;2023-02-20T01:24:50;24.70;37.20
45343;DHT22;31077;50.872;4.352;2023-02-20T01:27:16;24.50;37.00
45343;DHT22;31077;50.872;4.352;2023-02-20T01:29:42;24.60;37.10
45343;DHT22;31077;50.872;4.352;2023-02-20T01:32:10;24.80;37.20
45343;DHT22;31077;50.872;4.352;2023-02-20T01:34:37;24.70;37.20
45343;DHT22;31077;50.872;4.352;2023-02-20T01:37:03;24.60;37.00
45343;DHT22;31077;50.872;4.352;2023-02-20T01:39:29;24.80;37.20
45343;DHT22;31077;50.872;4.352;2023-02-20T01:42:06;24.70;37.10
45343;DHT22;31077;50.872;4.352;2023-02-20T01:44:34;24.70;37.10
45343;DHT22;31077;50.872;4.352;2023-02-20T01:47:05;24.70;37.10
45343;DHT22;31077;50.872;4.352;2023-02-20T01:52:30;24.70;37.10
45343;DHT22;31077;50.872;4.352;2023-02-20T01:55:14;24.70;37.10
45343;DHT22;31077;50.872;4.352;2023-02-20T01:57:47;24.70;37.10
45343;DHT22;31077;50.872;4.352;2023-02-20T02:00:17;24.70;37.10
45343;DHT22;31077;50.872;4.352;2023-02-20T02:02:52;24.70;37.10
45343;DHT22;31077;50.872;4.352;2023-02-20T02:05:21;24.70;37.10
45343;DHT22;31077;50.872;4.352;2023-02-20T02:07:48;24.70;37.10
45343;DHT22;31077;50.872;4.352;2023-02-20T02:10:19;24.70;37.00
45343;DHT22;31077;50.872;4.352;2023-02-20T02:12:50;24.70;37.10
45343;DHT22;31077;50.872;4.352;2023-02-20T02:15:19;24.70;37.10
45343;DHT22;31077;50.872;4.352;2023-02-20T02:35:03;24.70;37.20
45343;DHT22;31077;50.872;4.352;2023-02-20T02:37:46;24.80;37.50
45343;DHT22;31077;50.872;4.352;2023-02-20T02:40:27;24.70;37.70
45343;DHT22;31077;50.872;4.352;2023-02-20T02:45:37;24.80;37.80
45343;DHT22;31077;50.872;4.352;2023-02-20T02:50:39;24.80;37.80
45343;DHT22;31077;50.872;4.352;2023-02-20T02:53:07;23.70;37.30
45343;DHT22;31077;50.872;4.352;2023-02-20T02:55:33;24.80;37.90
45343;DHT22;31077;50.872;4.352;2023-02-20T02:58:00;24.90;37.90
45343;DHT22;31077;50.872;4.352;2023-02-20T03:05:59;24.80;37.90
45343;DHT22;31077;50.872;4.352;2023-02-20T03:08:38;24.70;38.40
45343;DHT22;31077;50.872;4.352;2023-02-20T03:13:44;23.60;37.30
45343;DHT22;31077;50.872;4.352;2023-02-20T03:16:42;24.80;37.90
45343;DHT22;31077;50.872;4.352;2023-02-20T03:19:13;24.80;37.80
45343;DHT22;31077;50.872;4.352;2023-02-20T03:21:44;24.00;37.50
45343;DHT22;31077;50.872;4.352;2023-02-20T03:24:13;24.80;37.90
45343;DHT22;31077;50.872;4.352;2023-02-20T03:26:43;24.90;38.00
45343;DHT22;31077;50.872;4.352;2023-02-20T03:29:33;24.80;37.90
45343;DHT22;31077;50.872;4.352;2023-02-20T03:32:06;24.90;38.00
45343;DHT22;31077;50.872;4.352;2023-02-20T03:34:52;24.90;38.00
45343;DHT22;31077;50.872;4.352;2023-02-20T03:37:39;24.90;37.90
45343;DHT22;31077;50.872;4.352;2023-02-20T03:40:26;25.00;38.00
45343;DHT22;31077;50.872;4.352;2023-02-20T03:43:14;24.90;37.90
45343;DHT22;31077;50.872;4.352;2023-02-20T03:46:03;24.90;37.90
45343;DHT22;31077;50.872;4.352;2023-02-20T03:48:39;24.90;37.90
45343;DHT22;31077;50.872;4.352;2023-02-20T03:51:07;24.90;37.90
45343;DHT22;31077;50.872;4.352;2023-02-20T03:53:52;24.90;37.80
45343;DHT22;31077;50.872;4.352;2023-02-20T03:56:30;24.80;37.70
45343;DHT22;31077;50.872;4.352;2023-02-20T03:59:12;24.90;37.90
45343;DHT22;31077;50.872;4.352;2023-02-20T04:01:41;24.90;37.80
45343;DHT22;31077;50.872;4.352;2023-02-20T04:04:12;24.80;37.80
45343;DHT22;31077;50.872;4.352;2023-02-20T04:06:40;23.00;36.80
45343;DHT22;31077;50.872;4.352;2023-02-20T04:09:11;24.80;37.70
45343;DHT22;31077;50.872;4.352;2023-02-20T04:11:42;24.90;37.90
45343;DHT22;31077;50.872;4.352;2023-02-20T04:14:11;24.90;37.90
45343;DHT22;31077;50.872;4.352;2023-02-20T04:16:43;24.80;37.80
45343;DHT22;31077;50.872;4.352;2023-02-20T04:19:10;24.90;37.90
45343;DHT22;31077;50.872;4.352;2023-02-20T04:21:48;24.80;37.80
45343;DHT22;31077;50.872;4.352;2023-02-20T04:24:28;24.90;37.90
45343;DHT22;31077;50.872;4.352;2023-02-20T04:26:56;24.90;37.90
45343;DHT22;31077;50.872;4.352;2023-02-20T04:29:22;24.80;38.40
45343;DHT22;31077;50.872;4.352;2023-02-20T04:31:48;25.00;38.00
45343;DHT22;31077;50.872;4.352;2023-02-20T04:34:15;24.80;37.80
45343;DHT22;31077;50.872;4.352;2023-02-20T04:36:40;24.80;37.80
45343;DHT22;31077;50.872;4.352;2023-02-20T04:39:06;24.80;37.80
45343;DHT22;31077;50.872;4.352;2023-02-20T04:41:32;25.00;37.90
45343;DHT22;31077;50.872;4.352;2023-02-20T04:43:58;24.80;37.80
45343;DHT22;31077;50.872;4.352;2023-02-20T04:46:42;24.80;37.80
45343;DHT22;31077;50.872;4.352;2023-02-20T04:49:08;24.80;37.80
45343;DHT22;31077;50.872;4.352;2023-02-20T04:51:33;23.50;37.10
45343;DHT22;31077;50.872;4.352;2023-02-20T04:53:59;24.90;37.90
45343;DHT22;31077;50.872;4.352;2023-02-20T04:56:25;23.40;37.10
45343;DHT22;31077;50.872;4.352;2023-02-20T04:58:51;24.70;37.80
45343;DHT22;31077;50.872;4.352;2023-02-20T05:01:18;24.70;37.80
45343;DHT22;31077;50.872;4.352;2023-02-20T05:03:44;24.70;37.80
45343;DHT22;31077;50.872;4.352;2023-02-20T05:06:09;24.90;37.90
45343;DHT22;31077;50.872;4.352;2023-02-20T05:08:35;24.90;37.90
45343;DHT22;31077;50.872;4.352;2023-02-20T05:11:01;24.70;37.80
45343;DHT22;31077;50.872;4.352;2023-02-20T05:13:27;24.70;37.70
45343;DHT22;31077;50.872;4.352;2023-02-20T05:15:52;24.80;37.80
45343;DHT22;31077;50.872;4.352;2023-02-20T05:18:25;24.70;37.70
45343;DHT22;31077;50.872;4.352;2023-02-20T05:20:51;24.40;37.60
45343;DHT22;31077;50.872;4.352;2023-02-20T05:23:35;24.70;37.70
45343;DHT22;31077;50.872;4.352;2023-02-20T05:26:01;24.70;37.70
45343;DHT22;31077;50.872;4.352;2023-02-20T05:28:27;24.70;37.70
45343;DHT22;31077;50.872;4.352;2023-02-20T05:30:53;24.70;37.70
45343;DHT22;31077;50.872;4.352;2023-02-20T05:33:18;24.70;37.70
45343;DHT22;31077;50.872;4.352;2023-02-20T05:35:44;24.80;37.60
45343;DHT22;31077;50.872;4.352;2023-02-20T05:38:16;24.70;37.50
45343;DHT22;31077;50.872;4.352;2023-02-20T05:40:42;24.80;37.60
45343;DHT22;31077;50.872;4.352;2023-02-20T05:43:08;24.70;37.50
45343;DHT22;31077;50.872;4.352;2023-02-20T05:45:33;24.80;37.40
45343;DHT22;31077;50.872;4.352;2023-02-20T05:47:59;24.70;37.30
45343;DHT22;31077;50.872;4.352;2023-02-20T05:50:25;24.70;37.30
45343;DHT22;31077;50.872;4.352;2023-02-20T05:52:51;24.70;37.40
45343;DHT22;31077;50.872;4.352;2023-02-20T05:55:17;24.70;37.30
45343;DHT22;31077;50.872;4.352;2023-02-20T05:57:42;24.70;37.30
45343;DHT22;31077;50.872;4.352;2023-02-20T06:00:09;24.70;37.20
45343;DHT22;31077;50.872;4.352;2023-02-20T06:02:35;24.70;37.20
45343;DHT22;31077;50.872;4.352;2023-02-20T06:05:02;24.80;37.60
45343;DHT22;31077;50.872;4.352;2023-02-20T06:07:30;24.70;37.70
45343;DHT22;31077;50.872;4.352;2023-02-20T06:09:56;24.60;37.70
45343;DHT22;31077;50.872;4.352;2023-02-20T06:12:21;24.60;37.70
45343;DHT22;31077;50.872;4.352;2023-02-20T06:14:47;24.70;37.60
45343;DHT22;31077;50.872;4.352;2023-02-20T06:17:13;24.60;37.60
45343;DHT22;31077;50.872;4.352;2023-02-20T06:19:39;24.60;37.70
45343;DHT22;31077;50.872;4.352;2023-02-20T06:22:05;24.70;37.60
45343;DHT22;31077;50.872;4.352;2023-02-20T06:24:30;24.60;37.70
45343;DHT22;31077;50.872;4.352;2023-02-20T06:26:56;24.60;37.70
45343;DHT22;31077;50.872;4.352;2023-02-20T06:29:22;24.70;37.80
45343;DHT22;31077;50.872;4.352;2023-02-20T06:31:48;24.60;37.70
45343;DHT22;31077;50.872;4.352;2023-02-20T06:34:15;24.60;37.70
45343;DHT22;31077;50.872;4.352;2023-02-20T06:36:41;24.60;37.70
45343;DHT22;31077;50.872;4.352;2023-02-20T06:39:09;24.70;37.60
45343;DHT22;31077;50.872;4.352;2023-02-20T06:41:35;24.60;37.70
45343;DHT22;31077;50.872;4.352;2023-02-20T06:44:01;24.60;37.20
45343;DHT22;31077;50.872;4.352;2023-02-20T06:46:27;23.20;36.70
45343;DHT22;31077;50.872;4.352;2023-02-20T06:48:55;23.60;36.90
45343;DHT22;31077;50.872;4.352;2023-02-20T06:51:26;24.60;37.40
45343;DHT22;31077;50.872;4.352;2023-02-20T06:53:52;24.70;37.60
45343;DHT22;31077;50.872;4.352;2023-02-20T06:56:20;24.60;37.50
45343;DHT22;31077;50.872;4.352;2023-02-20T06:58:48;24.70;37.80
45343;DHT22;31077;50.872;4.352;2023-02-20T07:01:15;25.60;37.50
45343;DHT22;31077;50.872;4.352;2023-02-20T07:03:41;24.60;37.20
45343;DHT22;31077;50.872;4.352;2023-02-20T07:06:07;24.60;37.50
45343;DHT22;31077;50.872;4.352;2023-02-20T07:08:33;24.60;37.50
45343;DHT22;31077;50.872;4.352;2023-02-20T07:10:58;24.60;37.50
45343;DHT22;31077;50.872;4.352;2023-02-20T07:13:24;24.60;37.70
45343;DHT22;31077;50.872;4.352;2023-02-20T07:15:50;24.60;37.50
45343;DHT22;31077;50.872;4.352;2023-02-20T07:18:16;24.50;37.40
45343;DHT22;31077;50.872;4.352;2023-02-20T07:20:43;24.60;37.50
45343;DHT22;31077;50.872;4.352;2023-02-20T07:23:09;24.60;37.60
45343;DHT22;31077;50.872;4.352;2023-02-20T07:25:35;24.60;37.40
45343;DHT22;31077;50.872;4.352;2023-02-20T07:28:01;24.60;37.50
45343;DHT22;31077;50.872;4.352;2023-02-20T07:30:27;24.60;37.40
45343;DHT22;31077;50.872;4.352;2023-02-20T07:32:52;23.30;36.80
45343;DHT22;31077;50.872;4.352;2023-02-20T07:35:18;24.60;37.50
45343;DHT22;31077;50.872;4.352;2023-02-20T07:37:44;24.50;37.40
45343;DHT22;31077;50.872;4.352;2023-02-20T07:40:11;24.60;37.60
45343;DHT22;31077;50.872;4.352;2023-02-20T07:42:37;24.60;37.40
45343;DHT22;31077;50.872;4.352;2023-02-20T07:45:03;24.70;37.40
45343;DHT22;31077;50.872;4.352;2023-02-20T07:47:28;24.70;37.40
45343;DHT22;31077;50.872;4.352;2023-02-20T07:49:54;24.10;37.10
45343;DHT22;31077;50.872;4.352;2023-02-20T07:52:20;24.60;37.40
45343;DHT22;31077;50.872;4.352;2023-02-20T07:54:46;24.50;37.30
45343;DHT22;31077;50.872;4.352;2023-02-20T07:57:11;24.50;37.30
45343;DHT22;31077;50.872;4.352;2023-02-20T07:59:40;24.60;37.40
45343;DHT22;31077;50.872;4.352;2023-02-20T08:02:06;24.60;37.50
45343;DHT22;31077;50.872;4.352;2023-02-20T08:04:31;24.50;37.40
45343;DHT22;31077;50.872;4.352;2023-02-20T08:06:57;24.50;37.30
45343;DHT22;31077;50.872;4.352;2023-02-20T08:09:23;24.60;37.40
45343;DHT22;31077;50.872;4.352;2023-02-20T08:11:49;24.60;37.50
45343;DHT22;31077;50.872;4.352;2023-02-20T08:14:15;24.60;37.40
45343;DHT22;31077;50.872;4.352;2023-02-20T08:16:40;24.50;37.40
45343;DHT22;31077;50.872;4.352;2023-02-20T08:19:06;24.70;37.40
45343;DHT22;31077;50.872;4.352;2023-02-20T08:21:32;24.60;37.40
45343;DHT22;31077;50.872;4.352;2023-02-20T08:23:58;24.50;37.30
45343;DHT22;31077;50.872;4.352;2023-02-20T08:26:24;24.60;37.40
45343;DHT22;31077;50.872;4.352;2023-02-20T08:28:50;24.50;37.40
45343;DHT22;31077;50.872;4.352;2023-02-20T08:31:17;24.60;37.60
45343;DHT22;31077;50.872;4.352;2023-02-20T08:33:43;24.50;37.40
45343;DHT22;31077;50.872;4.352;2023-02-20T08:36:08;24.60;37.50
45343;DHT22;31077;50.872;4.352;2023-02-20T08:38:37;24.60;37.40
45343;DHT22;31077;50.872;4.352;2023-02-20T08:41:09;24.50;37.40
45343;DHT22;31077;50.872;4.352;2023-02-20T08:43:37;24.60;37.40
45343;DHT22;31077;50.872;4.352;2023-02-20T08:46:04;24.60;37.50
45343;DHT22;31077;50.872;4.352;2023-02-20T08:48:30;24.60;37.40
45343;DHT22;31077;50.872;4.352;2023-02-20T08:50:56;24.70;37.40
45343;DHT22;31077;50.872;4.352;2023-02-20T08:53:22;24.50;37.00
45343;DHT22;31077;50.872;4.352;2023-02-20T08:55:48;24.60;37.30
45343;DHT22;31077;50.872;4.352;2023-02-20T08:58:18;24.70;37.10
45343;DHT22;31077;50.872;4.352;2023-02-20T09:00:44;22.90;36.20
45343;DHT22;31077;50.872;4.352;2023-02-20T09:03:09;24.60;37.20
45343;DHT22;31077;50.872;4.352;2023-02-20T09:05:35;24.60;37.40
45343;DHT22;31077;50.872;4.352;2023-02-20T09:08:03;24.50;37.30
45343;DHT22;31077;50.872;4.352;2023-02-20T09:10:29;24.50;37.40
45343;DHT22;31077;50.872;4.352;2023-02-20T09:12:55;24.50;37.60
45343;DHT22;31077;50.872;4.352;2023-02-20T09:15:21;23.20;36.50
45343;DHT22;31077;50.872;4.352;2023-02-20T09:17:48;24.60;37.50
45343;DHT22;31077;50.872;4.352;2023-02-20T09:20:16;24.60;37.50
45343;DHT22;31077;50.872;4.352;2023-02-20T09:22:45;26.40;38.70
45343;DHT22;31077;50.872;4.352;2023-02-20T09:25:11;24.60;37.50
45343;DHT22;31077;50.872;4.352;2023-02-20T09:27:37;24.60;37.50
45343;DHT22;31077;50.872;4.352;2023-02-20T09:30:03;24.50;37.50
45343;DHT22;31077;50.872;4.352;2023-02-20T09:32:29;24.50;37.50
45343;DHT22;31077;50.872;4.352;2023-02-20T09:34:55;24.10;36.90
45343;DHT22;31077;50.872;4.352;2023-02-20T09:37:23;24.60;37.30
45343;DHT22;31077;50.872;4.352;2023-02-20T09:39:49;24.50;37.00
45343;DHT22;31077;50.872;4.352;2023-02-20T09:42:45;24.50;37.00
45343;DHT22;31077;50.872;4.352;2023-02-20T09:45:21;24.60;37.30
45343;DHT22;31077;50.872;4.352;2023-02-20T09:48:05;24.70;37.50
45343;DHT22;31077;50.872;4.352;2023-02-20T09:50:38;24.60;37.60
45343;DHT22;31077;50.872;4.352;2023-02-20T09:53:13;24.50;37.40
45343;DHT22;31077;50.872;4.352;2023-02-20T09:55:40;24.60;37.30
45343;DHT22;31077;50.872;4.352;2023-02-20T09:58:26;24.50;37.10
45343;DHT22;31077;50.872;4.352;2023-02-20T10:00:52;24.60;37.50
45343;DHT22;31077;50.872;4.352;2023-02-20T10:03:23;24.50;37.30
45343;DHT22;31077;50.872;4.352;2023-02-20T10:05:49;24.60;37.60
45343;DHT22;31077;50.872;4.352;2023-02-20T10:08:19;24.50;37.50
45343;DHT22;31077;50.872;4.352;2023-02-20T10:10:49;24.60;37.60
45343;DHT22;31077;50.872;4.352;2023-02-20T10:18:56;24.60;37.70
45343;DHT22;31077;50.872;4.352;2023-02-20T10:21:56;24.70;37.80
45343;DHT22;31077;50.872;4.352;2023-02-20T10:27:59;24.60;37.70
45343;DHT22;31077;50.872;4.352;2023-02-20T10:33:51;24.70;37.70
45343;DHT22;31077;50.872;4.352;2023-02-20T10:36:24;24.50;37.60
45343;DHT22;31077;50.872;4.352;2023-02-20T10:39:09;24.70;37.50
45343;DHT22;31077;50.872;4.352;2023-02-20T10:45:04;26.20;38.50
45343;DHT22;31077;50.872;4.352;2023-02-20T10:47:42;24.50;37.40
45343;DHT22;31077;50.872;4.352;2023-02-20T10:50:28;24.60;37.50
45343;DHT22;31077;50.872;4.352;2023-02-20T10:53:03;23.30;37.10
45343;DHT22;31077;50.872;4.352;2023-02-20T10:55:44;24.60;37.70
45343;DHT22;31077;50.872;4.352;2023-02-20T10:58:25;24.70;37.50
45343;DHT22;31077;50.872;4.352;2023-02-20T11:00:56;24.50;37.60
45343;DHT22;31077;50.872;4.352;2023-02-20T11:03:56;24.70;37.40
45343;DHT22;31077;50.872;4.352;2023-02-20T11:06:33;24.60;37.50
45343;DHT22;31077;50.872;4.352;2023-02-20T11:09:01;24.60;37.60
45343;DHT22;31077;50.872;4.352;2023-02-20T11:11:43;24.60;37.50
45343;DHT22;31077;50.872;4.352;2023-02-20T11:14:14;24.70;37.40
45343;DHT22;31077;50.872;4.352;2023-02-20T11:16:48;24.60;37.70
45343;DHT22;31077;50.872;4.352;2023-02-20T11:19:20;24.50;38.00
45343;DHT22;31077;50.872;4.352;2023-02-20T11:21:48;24.70;37.90
45343;DHT22;31077;50.872;4.352;2023-02-20T11:24:26;24.60;37.60
45343;DHT22;31077;50.872;4.352;2023-02-20T11:27:05;24.60;37.50
45343;DHT22;31077;50.872;4.352;2023-02-20T11:29:42;24.70;37.60
45343;DHT22;31077;50.872;4.352;2023-02-20T11:32:37;24.60;37.70
45343;DHT22;31077;50.872;4.352;2023-02-20T11:37:46;24.60;37.70
45343;DHT22;31077;50.872;4.352;2023-02-20T11:40:26;24.70;37.60
45343;DHT22;31077;50.872;4.352;2023-02-20T11:42:53;24.70;37.60
45343;DHT22;31077;50.872;4.352;2023-02-20T11:45:27;24.60;37.70
45343;DHT22;31077;50.872;4.352;2023-02-20T11:48:11;24.60;37.40
45343;DHT22;31077;50.872;4.352;2023-02-20T11:50:45;24.60;37.40
45343;DHT22;31077;50.872;4.352;2023-02-20T11:58:39;24.60;37.40
45343;DHT22;31077;50.872;4.352;2023-02-20T12:01:06;24.60;37.30
45343;DHT22;31077;50.872;4.352;2023-02-20T12:03:33;24.60;37.70
45343;DHT22;31077;50.872;4.352;2023-02-20T12:06:26;24.60;37.70
45343;DHT22;31077;50.872;4.352;2023-02-20T12:08:53;24.70;38.00
45343;DHT22;31077;50.872;4.352;2023-02-20T12:11:22;24.60;37.60
45343;DHT22;31077;50.872;4.352;2023-02-20T12:13:51;24.70;37.70
45343;DHT22;31077;50.872;4.352;2023-02-20T12:19:52;24.60;37.60
45343;DHT22;31077;50.872;4.352;2023-02-20T12:22:35;24.70;37.70
45343;DHT22;31077;50.872;4.352;2023-02-20T12:25:23;24.60;37.50
45343;DHT22;31077;50.872;4.352;2023-02-20T12:36:27;24.60;37.50
45343;DHT22;31077;50.872;4.352;2023-02-20T12:38:58;24.60;37.50
45343;DHT22;31077;50.872;4.352;2023-02-20T12:44:18;24.60;37.40
45343;DHT22;31077;50.872;4.352;2023-02-20T12:46:58;24.60;37.50
45343;DHT22;31077;50.872;4.352;2023-02-20T12:55:12;24.60;37.40
45343;DHT22;31077;50.872;4.352;2023-02-20T13:05:42;24.60;37.50
45343;DHT22;31077;50.872;4.352;2023-02-20T13:08:17;24.70;37.70
45343;DHT22;31077;50.872;4.352;2023-02-20T13:16:33;24.60;37.70
45343;DHT22;31077;50.872;4.352;2023-02-20T13:19:29;24.70;37.90
45343;DHT22;31077;50.872;4.352;2023-02-20T13:21:57;24.60;37.70
45343;DHT22;31077;50.872;4.352;2023-02-20T13:24:32;24.60;37.70
45343;DHT22;31077;50.872;4.352;2023-02-20T13:27:01;23.30;37.20
45343;DHT22;31077;50.872;4.352;2023-02-20T13:29:55;24.60;38.40
45343;DHT22;31077;50.872;4.352;2023-02-20T13:32:31;24.70;38.00
45343;DHT22;31077;50.872;4.352;2023-02-20T13:35:43;24.60;37.90
45343;DHT22;31077;50.872;4.352;2023-02-20T13:38:19;24.70;37.90
45343;DHT22;31077;50.872;4.352;2023-02-20T13:53:53;24.70;38.20
45343;DHT22;31077;50.872;4.352;2023-02-20T13:57:12;24.60;38.00
45343;DHT22;31077;50.872;4.352;2023-02-20T13:59:17;24.60;38.10
45343;DHT22;31077;50.872;4.352;2023-02-20T14:02:14;24.60;38.10
45343;DHT22;31077;50.872;4.352;2023-02-20T14:05:18;24.60;38.20
45343;DHT22;31077;50.872;4.352;2023-02-20T14:07:45;24.70;38.40
45343;DHT22;31077;50.872;4.352;2023-02-20T14:10:31;24.60;38.10
45343;DHT22;31077;50.872;4.352;2023-02-20T14:13:05;24.60;38.20
45343;DHT22;31077;50.872;4.352;2023-02-20T14:15:33;24.70;38.30
45343;DHT22;31077;50.872;4.352;2023-02-20T14:18:13;24.80;38.30
45343;DHT22;31077;50.872;4.352;2023-02-20T14:20:39;25.70;38.90
45343;DHT22;31077;50.872;4.352;2023-02-20T14:23:27;24.80;38.20
45343;DHT22;31077;50.872;4.352;2023-02-20T14:25:59;24.80;38.50
45343;DHT22;31077;50.872;4.352;2023-02-20T14:28:25;24.60;38.30
45343;DHT22;31077;50.872;4.352;2023-02-20T14:31:44;24.70;38.40
45343;DHT22;31077;50.872;4.352;2023-02-20T14:40:00;24.60;38.40
45343;DHT22;31077;50.872;4.352;2023-02-20T14:42:27;24.60;38.30
45343;DHT22;31077;50.872;4.352;2023-02-20T14:44:59;24.70;38.40
45343;DHT22;31077;50.872;4.352;2023-02-20T14:47:25;24.70;38.30
45343;DHT22;31077;50.872;4.352;2023-02-20T14:49:51;24.80;38.40
45343;DHT22;31077;50.872;4.352;2023-02-20T14:52:22;24.70;38.40
45343;DHT22;31077;50.872;4.352;2023-02-20T14:55:16;24.60;38.30
45343;DHT22;31077;50.872;4.352;2023-02-20T14:57:43;24.70;38.40
45343;DHT22;31077;50.872;4.352;2023-02-20T15:02:50;24.60;38.40
45343;DHT22;31077;50.872;4.352;2023-02-20T15:05:23;24.60;38.50
45343;DHT22;31077;50.872;4.352;2023-02-20T15:07:50;24.60;38.60
45343;DHT22;31077;50.872;4.352;2023-02-20T15:10:45;24.60;38.50
45343;DHT22;31077;50.872;4.352;2023-02-20T15:13:13;24.60;38.70
45343;DHT22;31077;50.872;4.352;2023-02-20T15:15:42;24.70;38.60
45343;DHT22;31077;50.872;4.352;2023-02-20T15:18:15;24.60;38.70
45343;DHT22;31077;50.872;4.352;2023-02-20T15:20:48;23.80;38.50
45343;DHT22;31077;50.872;4.352;2023-02-20T15:23:24;23.90;38.40
45343;DHT22;31077;50.872;4.352;2023-02-20T15:25:52;24.60;38.70
45343;DHT22;31077;50.872;4.352;2023-02-20T15:33:41;24.70;38.90
45343;DHT22;31077;50.872;4.352;2023-02-20T15:36:12;24.70;38.70
45343;DHT22;31077;50.872;4.352;2023-02-20T15:38:39;24.60;38.50
45343;DHT22;31077;50.872;4.352;2023-02-20T15:41:06;24.70;38.60
45343;DHT22;31077;50.872;4.352;2023-02-20T15:43:32;24.60;38.40
45343;DHT22;31077;50.872;4.352;2023-02-20T15:45:58;24.70;38.40
45343;DHT22;31077;50.872;4.352;2023-02-20T15:48:24;24.70;38.30
45343;DHT22;31077;50.872;4.352;2023-02-20T15:50:50;24.60;38.30
45343;DHT22;31077;50.872;4.352;2023-02-20T15:53:24;24.70;38.50
45343;DHT22;31077;50.872;4.352;2023-02-20T15:55:53;24.60;39.00
45343;DHT22;31077;50.872;4.352;2023-02-20T15:58:26;24.70;39.70
45343;DHT22;31077;50.872;4.352;2023-02-20T16:00:52;25.70;40.80
45343;DHT22;31077;50.872;4.352;2023-02-20T16:03:27;24.60;40.30
45343;DHT22;31077;50.872;4.352;2023-02-20T16:05:54;24.60;40.20
45343;DHT22;31077;50.872;4.352;2023-02-20T16:08:21;24.80;40.40
45343;DHT22;31077;50.872;4.352;2023-02-20T16:10:47;24.70;40.50
45343;DHT22;31077;50.872;4.352;2023-02-20T16:13:40;24.60;40.60
45343;DHT22;31077;50.872;4.352;2023-02-20T16:16:25;24.70;40.60
45343;DHT22;31077;50.872;4.352;2023-02-20T16:18:53;24.60;40.70
45343;DHT22;31077;50.872;4.352;2023-02-20T16:21:20;24.70;40.50
45343;DHT22;31077;50.872;4.352;2023-02-20T16:23:46;24.60;40.60
45343;DHT22;31077;50.872;4.352;2023-02-20T16:26:16;24.70;40.60
45343;DHT22;31077;50.872;4.352;2023-02-20T16:28:42;24.70;40.60
45343;DHT22;31077;50.872;4.352;2023-02-20T16:31:11;24.70;40.60
45343;DHT22;31077;50.872;4.352;2023-02-20T16:33:37;25.70;41.00
45343;DHT22;31077;50.872;4.352;2023-02-20T16:36:03;24.90;40.40
45343;DHT22;31077;50.872;4.352;2023-02-20T16:38:28;24.70;40.30
45343;DHT22;31077;50.872;4.352;2023-02-20T16:40:54;24.70;40.20
45343;DHT22;31077;50.872;4.352;2023-02-20T16:43:22;24.70;40.20
45343;DHT22;31077;50.872;4.352;2023-02-20T16:45:51;24.70;40.10
45343;DHT22;31077;50.872;4.352;2023-02-20T16:48:18;24.90;40.30
45343;DHT22;31077;50.872;4.352;2023-02-20T16:50:47;24.80;40.10
45343;DHT22;31077;50.872;4.352;2023-02-20T16:53:14;24.80;40.20
45343;DHT22;31077;50.872;4.352;2023-02-20T16:55:40;24.80;40.20
45343;DHT22;31077;50.872;4.352;2023-02-20T16:58:07;24.70;40.30
45343;DHT22;31077;50.872;4.352;2023-02-20T17:00:35;24.80;40.20
45343;DHT22;31077;50.872;4.352;2023-02-20T17:03:02;24.80;40.30
45343;DHT22;31077;50.872;4.352;2023-02-20T17:05:32;24.80;40.30
45343;DHT22;31077;50.872;4.352;2023-02-20T17:07:58;24.80;40.20
45343;DHT22;31077;50.872;4.352;2023-02-20T17:10:25;24.80;40.30
45343;DHT22;31077;50.872;4.352;2023-02-20T17:12:52;24.80;40.50
45343;DHT22;31077;50.872;4.352;2023-02-20T17:15:20;24.80;40.60
45343;DHT22;31077;50.872;4.352;2023-02-20T17:17:46;24.80;40.60
45343;DHT22;31077;50.872;4.352;2023-02-20T17:20:17;24.80;40.50
45343;DHT22;31077;50.872;4.352;2023-02-20T17:22:46;24.80;40.50
45343;DHT22;31077;50.872;4.352;2023-02-20T17:25:16;24.90;40.50
45343;DHT22;31077;50.872;4.352;2023-02-20T17:27:43;24.80;40.40
45343;DHT22;31077;50.872;4.352;2023-02-20T17:30:09;24.80;40.30
45343;DHT22;31077;50.872;4.352;2023-02-20T17:32:35;24.80;40.30
45343;DHT22;31077;50.872;4.352;2023-02-20T17:35:01;25.80;41.00
45343;DHT22;31077;50.872;4.352;2023-02-20T17:37:27;24.80;40.30
45343;DHT22;31077;50.872;4.352;2023-02-20T17:39:56;24.80;40.20
45343;DHT22;31077;50.872;4.352;2023-02-20T17:42:23;24.80;40.30
45343;DHT22;31077;50.872;4.352;2023-02-20T17:44:48;24.80;40.10
45343;DHT22;31077;50.872;4.352;2023-02-20T17:47:15;24.80;40.20
45343;DHT22;31077;50.872;4.352;2023-02-20T17:49:42;24.80;40.10